SWA2009 KMCO-KBDL
Flight info
| Callsign | SWA2009 |
|---|---|
| Flight time | N/A |
| Altitude | 35000 |
| Route | FATHE3 VIYAP Q87 JROSS ELLDE Q97 PAACK JAMIE CONFR Q481 DPK DPK3 |
| Aircraft | B738/M-SDE2E3FGHIRWXY/LB1 |
Departure
| Time | 2026-04-21 22:17 |
|---|---|
| Airport | Orlando International Airport (KMCO) |
Arrival
| Time | N/A |
|---|---|
| Airport | Bradley International Airport (KBDL) |
| Time | Latitude | Longitude | Altitude | Speed | Heading |
|---|---|---|---|---|---|
| 2026-04-21 22:02 | 28.43631 | -81.30148 | 90 ft | 0 kts | 178° |
| 2026-04-21 22:07 | 28.43634 | -81.30148 | 90 ft | 2 kts | 178° |
| 2026-04-21 22:08 | 28.43649 | -81.30148 | 90 ft | 2 kts | 179° |
| 2026-04-21 22:08 | 28.43664 | -81.30149 | 90 ft | 2 kts | 179° |
| 2026-04-21 22:08 | 28.43678 | -81.30150 | 90 ft | 2 kts | 178° |
| 2026-04-21 22:08 | 28.43693 | -81.30151 | 90 ft | 2 kts | 179° |
| 2026-04-21 22:09 | 28.43708 | -81.30151 | 90 ft | 2 kts | 178° |
| 2026-04-21 22:09 | 28.43724 | -81.30151 | 90 ft | 2 kts | 178° |
| 2026-04-21 22:09 | 28.43738 | -81.30152 | 90 ft | 2 kts | 179° |
| 2026-04-21 22:09 | 28.43753 | -81.30153 | 90 ft | 2 kts | 179° |
| 2026-04-21 22:10 | 28.43768 | -81.30154 | 90 ft | 2 kts | 178° |
| 2026-04-21 22:10 | 28.43783 | -81.30154 | 90 ft | 1 kts | 178° |
| 2026-04-21 22:10 | 28.43790 | -81.30155 | 90 ft | 0 kts | 141° |
| 2026-04-21 22:10 | 28.43795 | -81.30164 | 90 ft | 1 kts | 122° |
| 2026-04-21 22:11 | 28.43797 | -81.30173 | 90 ft | 1 kts | 65° |
| 2026-04-21 22:11 | 28.43793 | -81.30180 | 90 ft | 1 kts | 35° |
| 2026-04-21 22:11 | 28.43792 | -81.30180 | 90 ft | 0 kts | 35° |
| 2026-04-21 22:13 | 28.43794 | -81.30179 | 90 ft | 0 kts | 34° |
| 2026-04-21 22:14 | 28.43800 | -81.30174 | 90 ft | 0 kts | 34° |
| 2026-04-21 22:14 | 28.43802 | -81.30173 | 90 ft | 1 kts | 34° |
| 2026-04-21 22:14 | 28.43825 | -81.30158 | 90 ft | 6 kts | 26° |
| 2026-04-21 22:15 | 28.43877 | -81.30125 | 90 ft | 11 kts | 42° |
| 2026-04-21 22:15 | 28.43913 | -81.30033 | 90 ft | 14 kts | 90° |
| 2026-04-21 22:15 | 28.43898 | -81.29944 | 90 ft | 7 kts | 116° |
| 2026-04-21 22:15 | 28.43881 | -81.29916 | 90 ft | 1 kts | 128° |
| 2026-04-21 22:16 | 28.43867 | -81.29899 | 90 ft | 7 kts | 137° |
| 2026-04-21 22:16 | 28.43790 | -81.29842 | 90 ft | 17 kts | 155° |
| 2026-04-21 22:16 | 28.43647 | -81.29808 | 90 ft | 24 kts | 177° |
| 2026-04-21 22:16 | 28.43541 | -81.29681 | 90 ft | 24 kts | 89° |
| 2026-04-21 22:17 | 28.43497 | -81.29572 | 90 ft | 3 kts | 142° |
| 2026-04-21 22:17 | 28.43445 | -81.29543 | 90 ft | 31 kts | 162° |
| 2026-04-21 22:17 | 28.42825 | -81.29562 | 89 ft | 143 kts | 177° |
| 2026-04-21 22:17 | 28.41619 | -81.29713 | 708 ft | 196 kts | 184° |
| 2026-04-21 22:18 | 28.40164 | -81.29974 | 1478 ft | 222 kts | 182° |
| 2026-04-21 22:18 | 28.38830 | -81.29887 | 2968 ft | 180 kts | 162° |
| 2026-04-21 22:18 | 28.37534 | -81.29321 | 3235 ft | 211 kts | 146° |
| 2026-04-21 22:18 | 28.36654 | -81.28110 | 4058 ft | 201 kts | 102° |
| 2026-04-21 22:19 | 28.36905 | -81.26601 | 4523 ft | 217 kts | 49° |
| 2026-04-21 22:19 | 28.38224 | -81.25671 | 5047 ft | 221 kts | 30° |
| 2026-04-21 22:19 | 28.39533 | -81.24749 | 5305 ft | 214 kts | 39° |
| 2026-04-21 22:19 | 28.40627 | -81.23628 | 5457 ft | 203 kts | 47° |
| 2026-04-21 22:20 | 28.41544 | -81.22440 | 6494 ft | 203 kts | 51° |
| 2026-04-21 22:20 | 28.42479 | -81.21072 | 6334 ft | 239 kts | 52° |
| 2026-04-21 22:20 | 28.43640 | -81.19604 | 5547 ft | 255 kts | 43° |
| 2026-04-21 22:20 | 28.44989 | -81.18388 | 5652 ft | 233 kts | 37° |
| 2026-04-21 22:21 | 28.46307 | -81.17384 | 6321 ft | 231 kts | 33° |
| 2026-04-21 22:21 | 28.47696 | -81.16389 | 7218 ft | 243 kts | 33° |
| 2026-04-21 22:21 | 28.49164 | -81.15343 | 8126 ft | 254 kts | 32° |
| 2026-04-21 22:21 | 28.50651 | -81.14262 | 9079 ft | 259 kts | 33° |